Time;durP1;ratioP1;P1;durP2;ratioP2;P2;SDS_P1;SDS_P2;PMS_P1;PMS_P2;Temp;Humidity;BMP_temperature;BMP_pressure;BME280_temperature;BME280_humidity;BME280_pressure;Samples;Min_cycle;Max_cycle;Signal;HPM_P1;HPM_P2
2023/05/08 00:00:07;;;;;;;8.13;6.27;;;15.50;62.70;;;;;;5081621;28;46435;-65
2023/05/08 00:02:33;;;;;;;10.57;7.17;;;15.50;62.60;;;;;;5080333;28;46626;-65
2023/05/08 00:04:58;;;;;;;8.83;6.30;;;15.50;62.70;;;;;;5081766;28;46343;-66
2023/05/08 00:07:24;;;;;;;8.13;5.93;;;15.40;62.70;;;;;;5075791;28;46274;-65
2023/05/08 00:09:50;;;;;;;8.67;6.30;;;15.40;62.60;;;;;;5079807;28;46583;-65
2023/05/08 00:12:15;;;;;;;7.83;6.60;;;15.50;62.70;;;;;;5078291;28;46556;-65
2023/05/08 00:14:41;;;;;;;9.23;6.17;;;15.50;62.80;;;;;;5080714;28;46448;-65
2023/05/08 00:17:06;;;;;;;9.50;6.80;;;15.50;62.80;;;;;;5093364;27;46537;-65
2023/05/08 00:19:32;;;;;;;11.43;7.30;;;15.40;62.90;;;;;;5079474;28;46479;-65
2023/05/08 00:21:57;;;;;;;12.77;6.60;;;15.40;62.90;;;;;;5080166;28;46491;-64
2023/05/08 00:24:23;;;;;;;11.63;7.57;;;15.40;63.50;;;;;;5079968;28;46922;-64
2023/05/08 00:26:49;;;;;;;7.97;6.30;;;15.30;63.80;;;;;;5079104;28;46826;-65
2023/05/08 00:29:14;;;;;;;9.67;7.40;;;15.30;64.20;;;;;;5080890;28;45812;-66
2023/05/08 00:31:40;;;;;;;10.60;6.90;;;15.30;63.30;;;;;;5076540;28;46497;-65
2023/05/08 00:34:05;;;;;;;8.20;6.33;;;15.30;64.30;;;;;;5079449;28;47076;-65
2023/05/08 00:36:31;;;;;;;8.73;6.60;;;15.20;64.60;;;;;;5077453;28;46413;-65
2023/05/08 00:38:57;;;;;;;9.23;6.53;;;15.20;64.90;;;;;;5079079;28;46601;-64
2023/05/08 00:41:22;;;;;;;8.93;7.17;;;15.20;65.50;;;;;;5080346;28;46350;-64
2023/05/08 00:43:48;;;;;;;11.93;7.10;;;15.10;65.80;;;;;;5079651;28;46566;-64
2023/05/08 00:46:14;;;;;;;9.13;6.57;;;15.10;65.60;;;;;;5079855;28;46409;-65
2023/05/08 00:48:40;;;;;;;9.10;6.10;;;15.20;65.10;;;;;;5079399;28;46390;-65
2023/05/08 00:51:07;;;;;;;11.10;7.20;;;15.30;64.60;;;;;;5080867;28;46409;-65
2023/05/08 00:53:36;;;;;;;9.77;7.13;;;15.30;64.30;;;;;;5078865;28;47232;-65
2023/05/08 00:56:02;;;;;;;10.00;7.27;;;15.40;64.20;;;;;;5080168;28;46325;-65
2023/05/08 00:58:29;;;;;;;8.70;7.10;;;15.40;64.10;;;;;;5079650;28;45835;-64
2023/05/08 01:00:55;;;;;;;9.57;7.03;;;15.50;63.90;;;;;;5077404;28;46009;-64
2023/05/08 01:03:22;;;;;;;9.03;6.43;;;15.50;63.60;;;;;;5078416;28;48105;-65
2023/05/08 01:05:48;;;;;;;9.47;6.70;;;15.50;63.50;;;;;;5078546;28;45785;-65
2023/05/08 01:08:14;;;;;;;9.50;6.20;;;15.60;63.50;;;;;;5081104;28;46802;-65
2023/05/08 01:11:10;;;;;;;9.53;5.80;;;15.50;63.30;;;;;;5081707;28;46499;-64
2023/05/08 01:13:56;;;;;;;8.53;6.80;;;15.50;63.50;;;;;;5076812;28;46355;-64
2023/05/08 01:16:43;;;;;;;8.57;6.10;;;15.40;63.80;;;;;;5078627;28;46418;-65
2023/05/08 01:19:33;;;;;;;12.00;6.50;;;15.40;64.10;;;;;;5079059;28;46348;-65
2023/05/08 01:22:03;;;;;;;7.33;5.77;;;15.30;64.20;;;;;;5077384;28;46511;-64
2023/05/08 01:24:42;;;;;;;9.80;6.37;;;15.20;64.70;;;;;;5076350;28;46579;-65
2023/05/08 01:27:25;;;;;;;8.77;6.00;;;15.10;65.70;;;;;;5080435;28;46232;-64
2023/05/08 01:30:03;;;;;;;12.57;7.60;;;15.00;66.40;;;;;;5079976;28;46456;-64
2023/05/08 01:32:42;;;;;;;9.00;6.87;;;15.00;66.40;;;;;;5080932;28;45847;-65
2023/05/08 01:35:40;;;;;;;11.97;7.53;;;15.00;66.40;;;;;;5077823;28;46753;-64
2023/05/08 01:38:12;;;;;;;10.90;6.60;;;15.00;66.20;;;;;;5080610;28;46370;-64
2023/05/08 01:40:51;;;;;;;9.73;7.43;;;15.10;65.90;;;;;;5076789;28;46559;-64
2023/05/08 01:43:44;;;;;;;9.80;7.07;;;15.00;65.80;;;;;;5077731;28;46439;-64
2023/05/08 01:46:17;;;;;;;10.00;7.70;;;15.00;66.00;;;;;;5080304;28;48116;-65
2023/05/08 01:48:55;;;;;;;18.90;7.57;;;15.00;65.80;;;;;;5079518;28;46429;-65
2023/05/08 01:51:24;;;;;;;10.30;7.80;;;15.10;65.70;;;;;;5077309;27;46456;-66
2023/05/08 01:54:00;;;;;;;13.67;7.87;;;15.10;65.30;;;;;;5075971;28;46432;-65
2023/05/08 01:56:28;;;;;;;12.40;7.50;;;15.10;65.30;;;;;;5079345;28;46447;-65
2023/05/08 01:58:56;;;;;;;11.00;8.30;;;15.10;65.20;;;;;;5078754;28;46121;-64
2023/05/08 02:01:24;;;;;;;12.80;8.97;;;15.10;65.20;;;;;;5080237;28;45806;-66
2023/05/08 02:03:51;;;;;;;13.27;8.80;;;15.10;65.30;;;;;;5078130;28;46487;-65
2023/05/08 02:06:20;;;;;;;11.37;8.40;;;15.00;65.70;;;;;;5078420;28;46364;-64
2023/05/08 02:08:52;;;;;;;14.87;9.17;;;14.90;65.60;;;;;;5079058;28;46467;-64
2023/05/08 02:11:19;;;;;;;13.10;9.03;;;14.90;65.70;;;;;;5075061;28;46504;-65
2023/05/08 02:13:47;;;;;;;14.57;9.30;;;14.90;65.70;;;;;;5076415;28;46267;-65
2023/05/08 02:16:13;;;;;;;12.73;8.80;;;14.90;65.70;;;;;;5080084;28;46322;-65
2023/05/08 02:18:45;;;;;;;12.90;8.83;;;14.90;65.70;;;;;;5074210;28;46286;-65
2023/05/08 02:21:12;;;;;;;12.63;9.10;;;15.00;65.40;;;;;;5078825;28;46356;-64
2023/05/08 02:23:38;;;;;;;14.93;10.03;;;15.00;65.10;;;;;;5092507;27;46388;-64
2023/05/08 02:26:04;;;;;;;12.93;9.13;;;15.00;65.00;;;;;;5081841;28;46709;-65
2023/05/08 02:28:32;;;;;;;13.17;9.37;;;15.10;64.90;;;;;;5082362;28;46560;-64
2023/05/08 02:30:59;;;;;;;13.30;9.10;;;15.10;64.80;;;;;;5080643;28;46458;-64
2023/05/08 02:33:28;;;;;;;13.17;9.20;;;15.10;64.70;;;;;;5081708;28;46284;-64
2023/05/08 02:35:55;;;;;;;15.37;8.77;;;15.10;64.70;;;;;;5081648;28;46538;-64
2023/05/08 02:38:24;;;;;;;12.80;8.83;;;15.10;64.50;;;;;;5082262;28;46366;-64
2023/05/08 02:40:54;;;;;;;15.70;9.50;;;15.10;64.50;;;;;;5081259;28;46388;-65
2023/05/08 02:43:20;;;;;;;15.40;9.47;;;15.10;64.40;;;;;;5078304;28;46522;-65
2023/05/08 02:46:02;;;;;;;14.07;9.47;;;15.10;64.50;;;;;;5082125;28;46400;-66
2023/05/08 02:48:35;;;;;;;14.30;9.70;;;15.10;64.50;;;;;;5078968;28;46386;-65
2023/05/08 02:51:24;;;;;;;13.83;10.07;;;15.00;64.70;;;;;;5081935;28;46357;-64
2023/05/08 02:54:01;;;;;;;11.57;9.40;;;15.00;64.70;;;;;;5081203;28;46463;-65
2023/05/08 02:56:36;;;;;;;14.60;9.37;;;15.00;64.80;;;;;;5081958;28;47150;-65
2023/05/08 02:59:22;;;;;;;15.40;10.23;;;15.00;64.90;;;;;;5081207;28;45776;-65
2023/05/08 03:01:52;;;;;;;14.63;9.43;;;14.90;63.90;;;;;;5082432;28;46404;-66
2023/05/08 03:04:24;;;;;;;16.33;9.70;;;14.90;65.00;;;;;;5080184;28;45969;-66
2023/05/08 03:06:53;;;;;;;18.50;10.70;;;14.90;65.10;;;;;;5080027;28;46645;-66
2023/05/08 03:09:21;;;;;;;14.27;9.47;;;14.80;65.30;;;;;;5082037;28;46347;-65
2023/05/08 03:11:52;;;;;;;12.27;9.60;;;14.80;64.30;;;;;;5080808;28;46479;-65
2023/05/08 03:14:21;;;;;;;14.00;10.07;;;14.80;65.30;;;;;;5078710;28;46427;-65
2023/05/08 03:16:51;;;;;;;16.20;10.60;;;14.90;65.30;;;;;;5081308;28;46462;-64
2023/05/08 03:19:38;;;;;;;18.37;11.23;;;14.80;65.20;;;;;;5079879;28;46371;-64
2023/05/08 03:22:04;;;;;;;17.50;11.10;;;14.90;65.20;;;;;;5080537;28;46668;-64
2023/05/08 03:24:35;;;;;;;15.90;10.97;;;14.90;64.80;;;;;;5080183;28;46357;-64
2023/05/08 03:27:02;;;;;;;19.77;11.30;;;15.00;64.60;;;;;;5080945;28;46443;-65
2023/05/08 03:29:29;;;;;;;18.57;12.00;;;15.00;64.50;;;;;;5080245;28;46440;-64
2023/05/08 03:31:57;;;;;;;15.27;11.70;;;15.00;64.50;;;;;;5085271;28;46345;-63
2023/05/08 03:34:24;;;;;;;20.50;12.93;;;15.00;64.40;;;;;;5079451;27;46476;-65
2023/05/08 03:36:50;;;;;;;21.17;12.50;;;15.00;64.60;;;;;;5079390;28;48603;-65
2023/05/08 03:39:16;;;;;;;17.13;11.90;;;15.00;64.60;;;;;;5082096;28;46333;-65
2023/05/08 03:41:42;;;;;;;15.73;11.53;;;15.10;63.60;;;;;;5081002;28;46440;-64
2023/05/08 03:44:09;;;;;;;19.07;13.53;;;15.10;64.60;;;;;;5076853;28;46277;-65
2023/05/08 03:46:36;;;;;;;19.80;12.80;;;15.10;64.70;;;;;;5080708;28;46380;-66
2023/05/08 03:49:04;;;;;;;21.60;13.07;;;15.10;64.70;;;;;;5078927;28;46495;-65
2023/05/08 03:51:31;;;;;;;20.40;12.50;;;15.10;64.60;;;;;;5080366;28;46497;-64
2023/05/08 03:53:56;;;;;;;18.67;12.73;;;15.10;64.60;;;;;;5079063;28;46386;-64
2023/05/08 03:56:22;;;;;;;19.07;13.10;;;15.10;64.50;;;;;;5079786;28;47038;-64
2023/05/08 03:58:58;;;;;;;19.57;12.93;;;15.10;64.50;;;;;;5077990;28;46208;-65
2023/05/08 04:01:27;;;;;;;22.23;13.37;;;15.10;64.50;;;;;;5079798;28;46444;-64
2023/05/08 04:04:07;;;;;;;17.87;12.23;;;15.10;64.50;;;;;;5081484;28;46400;-64
2023/05/08 04:06:45;;;;;;;17.73;12.30;;;15.20;64.60;;;;;;5080737;28;46426;-64
2023/05/08 04:09:17;;;;;;;19.80;13.37;;;15.20;64.70;;;;;;5081550;28;45878;-64
2023/05/08 04:11:49;;;;;;;20.33;14.20;;;15.20;63.50;;;;;;5078978;28;46376;-64
2023/05/08 04:14:20;;;;;;;19.40;13.10;;;15.20;64.50;;;;;;5080616;28;46487;-64
2023/05/08 04:16:52;;;;;;;20.23;14.23;;;15.20;64.40;;;;;;5077267;28;46897;-64
2023/05/08 04:19:26;;;;;;;19.23;13.40;;;15.20;65.70;;;;;;5076546;28;46453;-64
2023/05/08 04:21:54;;;;;;;21.50;14.73;;;15.00;64.30;;;;;;5096378;27;45829;-64
2023/05/08 04:24:22;;;;;;;19.80;14.67;;;15.00;65.30;;;;;;5080597;28;46462;-64
2023/05/08 04:26:48;;;;;;;20.80;14.17;;;14.90;65.70;;;;;;5080204;28;46695;-65
2023/05/08 04:29:14;;;;;;;20.97;13.57;;;14.90;65.50;;;;;;5080559;28;46579;-64
2023/05/08 04:31:41;;;;;;;19.73;13.80;;;14.80;64.70;;;;;;5080090;28;45931;-64
2023/05/08 04:34:08;;;;;;;21.60;13.10;;;14.80;65.80;;;;;;5081112;28;46367;-64
2023/05/08 04:36:33;;;;;;;21.43;13.13;;;14.80;65.80;;;;;;5078454;28;47306;-64
2023/05/08 04:38:59;;;;;;;19.10;13.07;;;14.90;65.60;;;;;;5079704;28;46471;-66
2023/05/08 04:41:25;;;;;;;24.90;13.30;;;14.80;65.60;;;;;;5079265;28;46385;-64
2023/05/08 04:43:51;;;;;;;18.30;13.53;;;14.70;65.60;;;;;;5078480;27;46484;-64
2023/05/08 04:46:17;;;;;;;22.47;12.73;;;14.70;65.40;;;;;;5080336;27;46397;-65
2023/05/08 04:48:42;;;;;;;19.57;12.70;;;14.70;65.40;;;;;;5080604;28;46414;-64
2023/05/08 04:51:08;;;;;;;18.80;12.80;;;14.60;65.30;;;;;;5079475;28;46712;-65
2023/05/08 04:53:34;;;;;;;19.67;11.57;;;14.60;65.00;;;;;;5076845;28;46531;-64
2023/05/08 04:55:59;;;;;;;20.70;12.30;;;14.60;64.80;;;;;;5079497;28;46387;-64
2023/05/08 04:58:25;;;;;;;15.80;11.23;;;14.60;64.60;;;;;;5080265;28;46352;-64
2023/05/08 05:00:50;;;;;;;18.80;12.73;;;14.50;64.30;;;;;;5073808;28;46360;-64
2023/05/08 05:03:16;;;;;;;20.10;11.57;;;14.50;63.90;;;;;;5080985;28;46396;-64
2023/05/08 05:05:42;;;;;;;14.80;10.33;;;14.60;63.50;;;;;;5076620;28;46416;-65
2023/05/08 05:08:07;;;;;;;20.83;12.03;;;14.60;62.80;;;;;;5079154;28;46382;-64
2023/05/08 05:10:33;;;;;;;18.07;11.93;;;14.60;62.50;;;;;;5078849;28;46353;-65
2023/05/08 05:12:58;;;;;;;17.30;12.10;;;14.60;62.30;;;;;;5078623;28;46230;-66
2023/05/08 05:15:24;;;;;;;19.10;12.03;;;14.50;61.70;;;;;;5079263;28;46968;-65
2023/05/08 05:17:50;;;;;;;18.60;11.97;;;14.50;61.70;;;;;;5079123;28;46428;-65
2023/05/08 05:20:15;;;;;;;18.67;11.93;;;14.40;61.60;;;;;;5078754;28;46405;-65
2023/05/08 05:22:41;;;;;;;20.80;12.00;;;14.50;61.20;;;;;;5079638;28;46420;-65
2023/05/08 05:25:07;;;;;;;18.07;11.30;;;14.50;61.10;;;;;;5078000;28;46370;-64
2023/05/08 05:27:36;;;;;;;20.43;12.10;;;14.40;60.90;;;;;;5078313;28;46429;-64
2023/05/08 05:30:02;;;;;;;20.93;12.27;;;14.50;60.80;;;;;;5081787;28;46365;-65
2023/05/08 05:32:28;;;;;;;18.50;11.33;;;14.50;60.50;;;;;;5078165;28;46575;-66
2023/05/08 05:34:54;;;;;;;20.17;12.03;;;14.50;60.40;;;;;;5079307;28;46425;-65
2023/05/08 05:37:19;;;;;;;17.33;11.33;;;14.50;60.20;;;;;;5073629;28;46329;-64
2023/05/08 05:39:45;;;;;;;18.03;11.93;;;14.40;60.10;;;;;;5078602;28;46502;-65
2023/05/08 05:42:11;;;;;;;18.57;11.50;;;14.40;60.10;;;;;;5079971;28;46276;-66
2023/05/08 05:44:37;;;;;;;23.17;12.23;;;14.40;60.10;;;;;;5077116;28;46338;-65
2023/05/08 05:47:04;;;;;;;17.37;12.30;;;14.40;60.00;;;;;;5080591;28;46453;-65
2023/05/08 05:49:29;;;;;;;16.27;11.17;;;14.50;59.80;;;;;;5078496;28;46548;-65
2023/05/08 05:51:55;;;;;;;19.03;12.40;;;14.60;58.30;;;;;;5079693;28;46317;-65
2023/05/08 05:54:21;;;;;;;18.30;12.43;;;14.60;59.40;;;;;;5073968;28;46535;-65
2023/05/08 05:56:47;;;;;;;25.13;12.73;;;14.70;58.90;;;;;;5071053;28;46190;-64
2023/05/08 05:59:12;;;;;;;23.87;11.77;;;14.70;58.70;;;;;;5074175;28;46615;-64
2023/05/08 06:01:38;;;;;;;21.53;11.80;;;14.70;57.80;;;;;;5075070;28;46571;-65
2023/05/08 06:04:04;;;;;;;19.57;12.47;;;14.70;58.80;;;;;;5074471;28;47293;-65
2023/05/08 06:06:30;;;;;;;18.27;12.23;;;14.70;58.80;;;;;;5077288;28;46475;-64
2023/05/08 06:08:56;;;;;;;18.13;11.70;;;14.70;58.50;;;;;;5079579;28;46453;-65
2023/05/08 06:11:22;;;;;;;15.93;10.87;;;14.70;58.50;;;;;;5078665;28;46357;-65
2023/05/08 06:13:48;;;;;;;17.10;10.53;;;14.60;58.90;;;;;;5076456;28;46621;-64
2023/05/08 06:16:14;;;;;;;18.13;10.97;;;14.50;58.80;;;;;;5075497;28;46332;-64
2023/05/08 06:18:40;;;;;;;16.50;10.93;;;14.50;58.80;;;;;;5076698;28;46254;-65
2023/05/08 06:21:06;;;;;;;16.80;11.03;;;14.40;58.70;;;;;;5076266;28;46364;-65
2023/05/08 06:23:32;;;;;;;15.17;10.80;;;14.40;58.80;;;;;;5075718;28;47098;-66
2023/05/08 06:25:57;;;;;;;18.43;12.60;;;14.40;58.90;;;;;;5076770;28;46387;-64
2023/05/08 06:28:24;;;;;;;17.00;10.63;;;14.30;58.80;;;;;;5075243;28;46429;-66
2023/05/08 06:30:50;;;;;;;15.17;10.60;;;14.40;58.70;;;;;;5078116;28;46623;-64
2023/05/08 06:33:16;;;;;;;19.17;11.77;;;14.30;58.40;;;;;;5077464;28;46346;-64
2023/05/08 06:35:46;;;;;;;17.10;11.17;;;14.20;58.60;;;;;;5079146;28;46531;-66
2023/05/08 06:38:12;;;;;;;16.03;10.67;;;14.20;58.70;;;;;;5077824;28;46362;-64
2023/05/08 06:40:42;;;;;;;14.47;10.20;;;14.10;58.80;;;;;;5079400;28;46623;-65
2023/05/08 06:43:07;;;;;;;17.33;11.20;;;14.00;58.80;;;;;;5078150;28;47048;-64
2023/05/08 06:45:33;;;;;;;16.53;10.60;;;13.90;58.80;;;;;;5074188;28;46044;-64
2023/05/08 06:47:59;;;;;;;16.47;10.83;;;13.90;58.80;;;;;;5076425;28;46488;-65
2023/05/08 06:50:24;;;;;;;23.73;11.03;;;13.80;58.80;;;;;;5077170;28;46479;-65
2023/05/08 06:52:50;;;;;;;20.37;11.33;;;13.90;58.80;;;;;;5074514;28;46337;-64
2023/05/08 06:55:16;;;;;;;26.03;10.00;;;13.90;58.50;;;;;;5078440;28;46937;-66
2023/05/08 06:57:41;;;;;;;16.03;11.60;;;14.00;58.30;;;;;;5077235;28;46371;-65
2023/05/08 07:00:08;;;;;;;18.33;12.10;;;14.00;57.80;;;;;;5078117;28;46583;-65
2023/05/08 07:02:34;;;;;;;17.97;12.70;;;14.10;57.50;;;;;;5076374;28;47230;-66
2023/05/08 07:04:59;;;;;;;17.97;11.73;;;14.10;57.60;;;;;;5076528;28;46443;-64
2023/05/08 07:07:25;;;;;;;17.10;12.40;;;14.20;57.40;;;;;;5073445;28;46381;-65
2023/05/08 07:09:50;;;;;;;18.90;11.20;;;14.30;56.80;;;;;;5079027;27;46589;-64
2023/05/08 07:12:16;;;;;;;16.37;11.97;;;14.40;56.40;;;;;;5079456;28;46450;-64
2023/05/08 07:14:42;;;;;;;18.30;11.87;;;14.50;55.90;;;;;;5077811;28;46408;-64
2023/05/08 07:17:08;;;;;;;18.93;12.17;;;14.50;55.80;;;;;;5088735;28;46454;-66
2023/05/08 07:19:37;;;;;;;16.43;10.33;;;14.40;55.70;;;;;;5077230;28;46498;-65
2023/05/08 07:22:03;;;;;;;17.40;11.50;;;14.40;56.10;;;;;;5080776;28;46208;-66
2023/05/08 07:24:29;;;;;;;16.53;11.77;;;14.30;56.70;;;;;;5077558;28;46459;-65
2023/05/08 07:26:55;;;;;;;18.27;11.17;;;14.30;56.70;;;;;;5081855;28;45894;-65
2023/05/08 07:29:21;;;;;;;17.80;10.83;;;14.30;56.50;;;;;;5079722;28;46383;-64
2023/05/08 07:31:47;;;;;;;15.30;9.93;;;14.60;54.80;;;;;;5076322;28;46412;-64
2023/05/08 07:34:13;;;;;;;15.53;11.50;;;14.60;55.90;;;;;;5079403;28;45859;-65
2023/05/08 07:36:39;;;;;;;14.37;9.63;;;14.60;55.90;;;;;;5078835;28;46415;-66
2023/05/08 07:39:04;;;;;;;17.80;11.67;;;14.80;56.00;;;;;;5080524;28;46452;-66
2023/05/08 07:41:30;;;;;;;17.13;10.70;;;14.80;55.60;;;;;;5079083;28;46597;-65
2023/05/08 07:43:56;;;;;;;17.20;10.93;;;14.90;55.20;;;;;;5085972;28;46459;-67
2023/05/08 07:46:21;;;;;;;15.13;11.17;;;15.00;54.60;;;;;;5087665;28;46390;-64
2023/05/08 07:48:47;;;;;;;15.80;11.17;;;15.10;53.80;;;;;;5087157;28;46260;-62
2023/05/08 07:51:14;;;;;;;16.67;10.33;;;15.30;53.40;;;;;;5080565;28;46737;-63
2023/05/08 07:53:39;;;;;;;17.07;10.37;;;15.30;54.50;;;;;;5076475;28;46353;-64
2023/05/08 07:56:05;;;;;;;13.40;9.80;;;15.30;53.00;;;;;;5082310;28;46640;-65
2023/05/08 07:58:31;;;;;;;14.80;10.50;;;15.30;52.80;;;;;;5080311;28;46660;-64
2023/05/08 08:00:56;;;;;;;13.20;9.60;;;15.50;52.00;;;;;;5075831;28;47186;-65
2023/05/08 08:03:22;;;;;;;14.90;10.37;;;15.60;51.70;;;;;;5080590;28;46463;-65
2023/05/08 08:05:48;;;;;;;16.30;10.20;;;15.70;51.10;;;;;;5078619;28;46467;-64
2023/05/08 08:08:13;;;;;;;14.77;10.50;;;15.70;50.70;;;;;;5081940;28;46467;-65
2023/05/08 08:10:39;;;;;;;12.37;9.67;;;15.70;50.50;;;;;;5077443;28;47003;-66
2023/05/08 08:13:04;;;;;;;15.90;10.47;;;15.70;50.30;;;;;;5079470;28;45878;-65
2023/05/08 08:15:30;;;;;;;15.60;10.40;;;15.60;50.00;;;;;;5077997;28;46497;-65
2023/05/08 08:17:56;;;;;;;23.93;10.47;;;15.60;50.20;;;;;;5079075;28;45928;-66
2023/05/08 08:20:22;;;;;;;16.00;10.97;;;15.80;49.80;;;;;;5079993;28;47901;-70
2023/05/08 08:22:47;;;;;;;20.83;11.20;;;15.90;49.30;;;;;;5078863;28;46403;-63
2023/05/08 08:25:13;;;;;;;15.27;10.90;;;16.00;49.00;;;;;;5078654;28;46120;-64
2023/05/08 08:27:38;;;;;;;17.63;10.23;;;16.10;48.60;;;;;;5079115;27;46622;-63
2023/05/08 08:30:05;;;;;;;17.00;10.43;;;15.90;48.30;;;;;;5082230;27;46975;-64
2023/05/08 08:32:31;;;;;;;15.53;10.07;;;16.00;48.60;;;;;;5080237;27;45922;-64
2023/05/08 08:34:56;;;;;;;21.57;10.70;;;16.10;48.20;;;;;;5077489;28;46750;-63
2023/05/08 08:37:23;;;;;;;16.47;10.67;;;16.00;48.30;;;;;;5080083;27;46448;-63
2023/05/08 08:39:48;;;;;;;15.13;10.97;;;16.00;48.30;;;;;;5079089;27;46077;-64
2023/05/08 08:42:14;;;;;;;18.03;11.17;;;15.90;48.50;;;;;;5083357;27;46419;-63
2023/05/08 08:44:40;;;;;;;15.80;11.60;;;15.90;48.30;;;;;;5076718;27;46493;-64
2023/05/08 08:47:10;;;;;;;16.17;11.03;;;15.80;48.10;;;;;;5082725;27;46596;-63
2023/05/08 08:49:42;;;;;;;15.00;10.60;;;15.80;48.00;;;;;;5075086;27;46661;-64
2023/05/08 08:52:21;;;;;;;15.30;10.90;;;15.80;47.80;;;;;;5078469;28;46908;-65
2023/05/08 08:54:49;;;;;;;15.23;10.60;;;15.80;47.80;;;;;;5077914;27;46341;-67
2023/05/08 08:57:15;;;;;;;14.97;10.37;;;15.80;47.50;;;;;;5080570;28;46453;-65
2023/05/08 08:59:43;;;;;;;16.60;10.90;;;15.80;47.50;;;;;;5076335;27;48084;-65
2023/05/08 09:02:13;;;;;;;18.43;11.60;;;15.80;47.40;;;;;;5075268;27;46297;-65
2023/05/08 09:04:39;;;;;;;19.43;11.17;;;15.70;47.70;;;;;;5076154;28;46488;-65
2023/05/08 09:07:07;;;;;;;17.10;10.70;;;15.80;47.20;;;;;;5075676;27;46602;-65
2023/05/08 09:09:34;;;;;;;14.60;10.53;;;16.00;46.60;;;;;;5077655;28;46616;-66
2023/05/08 09:12:00;;;;;;;16.27;11.03;;;16.10;46.10;;;;;;5079559;28;46447;-65
2023/05/08 09:14:26;;;;;;;13.00;9.77;;;16.10;45.90;;;;;;5077778;28;45870;-65
2023/05/08 09:16:54;;;;;;;16.13;11.97;;;16.20;46.40;;;;;;5078808;27;46290;-65
2023/05/08 09:19:20;;;;;;;16.27;10.90;;;16.30;45.50;;;;;;5079398;28;46295;-65
2023/05/08 09:21:47;;;;;;;17.37;11.60;;;16.10;44.60;;;;;;5079913;28;46444;-66
2023/05/08 09:24:13;;;;;;;17.40;11.73;;;16.10;45.60;;;;;;5081207;28;46709;-65
2023/05/08 09:26:40;;;;;;;16.40;11.40;;;15.90;45.70;;;;;;5079070;28;46476;-64
2023/05/08 09:29:10;;;;;;;15.37;11.00;;;15.80;45.60;;;;;;5077586;27;46504;-64
2023/05/08 09:31:41;;;;;;;16.37;11.90;;;15.80;45.60;;;;;;5076893;27;45844;-64
2023/05/08 09:34:21;;;;;;;18.10;12.70;;;15.80;45.60;;;;;;5078369;27;46592;-64
2023/05/08 09:36:47;;;;;;;16.40;10.93;;;16.00;45.40;;;;;;5071027;27;45948;-64
2023/05/08 09:39:24;;;;;;;20.50;11.73;;;16.20;45.10;;;;;;5078110;27;46465;-66
2023/05/08 09:41:57;;;;;;;23.53;12.20;;;16.50;43.30;;;;;;5079322;27;46571;-65
2023/05/08 09:44:22;;;;;;;18.80;12.63;;;16.50;44.40;;;;;;5077940;28;46399;-66
2023/05/08 09:46:49;;;;;;;16.27;11.43;;;16.70;43.90;;;;;;5079616;27;46400;-65
2023/05/08 09:49:17;;;;;;;22.60;12.40;;;16.80;43.90;;;;;;5079051;28;46752;-66
2023/05/08 09:51:52;;;;;;;17.77;12.77;;;16.80;42.50;;;;;;5085018;28;46410;-65
2023/05/08 09:54:18;;;;;;;21.50;13.23;;;16.80;43.50;;;;;;5078392;27;46629;-65
2023/05/08 09:56:44;;;;;;;17.90;11.87;;;16.80;43.60;;;;;;5074618;28;46447;-66
2023/05/08 09:59:23;;;;;;;15.10;11.07;;;16.80;43.30;;;;;;5075935;28;46168;-66
2023/05/08 10:01:49;;;;;;;24.30;14.30;;;17.30;41.10;;;;;;5077999;28;46862;-66
2023/05/08 10:04:15;;;;;;;21.97;14.53;;;17.40;42.10;;;;;;5078302;28;46497;-66
2023/05/08 10:06:41;;;;;;;24.33;14.97;;;17.40;42.10;;;;;;5077872;28;45826;-65
2023/05/08 10:09:07;;;;;;;27.17;17.13;;;17.50;42.30;;;;;;5076123;28;46586;-65
2023/05/08 10:11:32;;;;;;;30.23;15.97;;;17.50;41.60;;;;;;5079047;27;46401;-65
2023/05/08 10:13:58;;;;;;;21.97;14.60;;;17.60;42.00;;;;;;5078601;28;46350;-66
2023/05/08 10:16:35;;;;;;;24.17;15.27;;;17.70;41.60;;;;;;5079085;28;46653;-65
2023/05/08 10:19:06;;;;;;;26.23;15.20;;;17.90;41.00;;;;;;5073941;28;46682;-65
2023/05/08 10:21:36;;;;;;;22.67;15.37;;;18.00;40.20;;;;;;5079056;28;46397;-66
2023/05/08 10:24:05;;;;;;;23.20;15.23;;;18.10;39.80;;;;;;5077824;28;46511;-66
2023/05/08 10:26:32;;;;;;;22.17;14.47;;;18.30;39.50;;;;;;5079583;28;46574;-65
2023/05/08 10:29:06;;;;;;;21.10;14.67;;;18.50;39.10;;;;;;5076982;28;46049;-66
2023/05/08 10:31:34;;;;;;;20.80;14.03;;;18.50;38.70;;;;;;5078110;28;46435;-65
2023/05/08 10:34:01;;;;;;;25.50;14.50;;;18.70;37.60;;;;;;5075370;28;46447;-64
2023/05/08 10:36:28;;;;;;;18.27;13.40;;;18.70;37.70;;;;;;5078237;28;46388;-64
2023/05/08 10:38:57;;;;;;;21.27;14.00;;;19.10;37.30;;;;;;5073689;28;47218;-64
2023/05/08 10:41:23;;;;;;;15.40;11.17;;;19.50;36.20;;;;;;5077571;28;45859;-64
2023/05/08 10:43:49;;;;;;;16.40;12.20;;;19.50;35.40;;;;;;5076990;28;46475;-64
2023/05/08 10:46:30;;;;;;;20.43;13.40;;;19.60;35.70;;;;;;5079820;27;46833;-64
2023/05/08 10:49:14;;;;;;;17.87;12.27;;;19.80;35.10;;;;;;5080286;28;48020;-65
2023/05/08 10:52:01;;;;;;;18.90;12.67;;;20.00;34.00;;;;;;5080980;28;46545;-66
2023/05/08 10:54:54;;;;;;;16.77;11.60;;;19.70;34.30;;;;;;5076948;28;46442;-66
2023/05/08 10:57:20;;;;;;;16.17;11.93;;;19.50;34.80;;;;;;5081550;28;46400;-65
2023/05/08 10:59:45;;;;;;;19.30;13.37;;;19.00;35.60;;;;;;5077255;28;46914;-66
2023/05/08 11:02:12;;;;;;;19.70;13.40;;;18.80;36.80;;;;;;5081048;28;46446;-66
2023/05/08 11:04:38;;;;;;;17.50;13.30;;;18.80;36.60;;;;;;5078469;28;46416;-64
2023/05/08 11:07:04;;;;;;;18.40;13.33;;;18.70;36.90;;;;;;5080380;28;46578;-65
2023/05/08 11:09:41;;;;;;;19.57;13.83;;;18.60;38.60;;;;;;5078888;27;46535;-64
2023/05/08 11:12:15;;;;;;;19.63;14.40;;;18.50;37.20;;;;;;5080199;27;46258;-65
2023/05/08 11:14:43;;;;;;;21.87;13.57;;;18.50;37.00;;;;;;5079328;27;46396;-65
2023/05/08 11:17:09;;;;;;;21.53;16.43;;;18.40;36.60;;;;;;5080345;28;46444;-65
2023/05/08 11:19:36;;;;;;;21.67;14.27;;;18.10;37.30;;;;;;5078669;28;47233;-65
2023/05/08 11:22:12;;;;;;;20.57;14.90;;;18.10;37.70;;;;;;5078787;28;46354;-65
2023/05/08 11:24:55;;;;;;;24.50;17.13;;;18.30;37.20;;;;;;5079663;28;46456;-65
2023/05/08 11:27:32;;;;;;;20.63;15.13;;;18.40;37.20;;;;;;5082600;28;46452;-64
2023/05/08 11:30:17;;;;;;;19.70;15.23;;;18.70;36.60;;;;;;5081529;28;46618;-65
2023/05/08 11:33:02;;;;;;;21.10;16.03;;;18.90;36.00;;;;;;5075358;28;45984;-65
2023/05/08 11:35:55;;;;;;;23.83;15.80;;;19.10;35.30;;;;;;5081602;28;46369;-65
2023/05/08 11:38:23;;;;;;;23.20;16.53;;;19.30;34.60;;;;;;5073406;27;46475;-65
2023/05/08 11:41:22;;;;;;;23.03;15.50;;;19.30;34.40;;;;;;5078689;28;46765;-65
2023/05/08 11:44:08;;;;;;;22.93;16.80;;;19.40;34.10;;;;;;5080800;28;45939;-65
2023/05/08 11:46:50;;;;;;;23.07;17.37;;;19.50;33.60;;;;;;5080243;28;46450;-65
2023/05/08 11:49:17;;;;;;;21.10;16.57;;;19.40;33.80;;;;;;5080624;28;46564;-65
2023/05/08 11:51:48;;;;;;;29.03;17.87;;;19.50;34.30;;;;;;5080365;28;46589;-65
2023/05/08 11:54:18;;;;;;;23.53;17.07;;;19.80;33.80;;;;;;5078309;28;46472;-66
2023/05/08 11:56:51;;;;;;;23.20;16.40;;;19.40;33.50;;;;;;5078207;27;46485;-67
2023/05/08 11:59:17;;;;;;;24.73;17.27;;;19.10;34.40;;;;;;5082342;28;46270;-65
2023/05/08 12:01:43;;;;;;;25.47;18.13;;;19.30;34.00;;;;;;5077754;28;47250;-66
2023/05/08 12:04:11;;;;;;;22.43;17.00;;;19.60;33.70;;;;;;5080981;28;46354;-66
2023/05/08 12:06:38;;;;;;;23.07;16.80;;;19.30;33.40;;;;;;5076068;28;46344;-65
2023/05/08 12:09:10;;;;;;;24.03;17.23;;;19.20;33.80;;;;;;5079818;28;46531;-65
2023/05/08 12:11:36;;;;;;;26.20;17.83;;;19.30;33.40;;;;;;5076307;28;46655;-66
2023/05/08 12:14:01;;;;;;;22.70;17.07;;;19.40;33.50;;;;;;5079891;28;46470;-65
2023/05/08 12:16:27;;;;;;;31.63;17.00;;;19.40;33.50;;;;;;5094549;27;46603;-65
2023/05/08 12:18:55;;;;;;;25.33;17.50;;;19.30;33.40;;;;;;5080015;28;46472;-66
2023/05/08 12:21:21;;;;;;;24.90;18.70;;;19.20;34.20;;;;;;5079934;28;47076;-65
2023/05/08 12:23:47;;;;;;;23.30;16.80;;;19.30;33.40;;;;;;5076244;28;46411;-65
2023/05/08 12:26:13;;;;;;;23.20;17.53;;;19.50;33.60;;;;;;5079414;28;46682;-64
2023/05/08 12:28:42;;;;;;;24.47;17.90;;;19.60;33.70;;;;;;5075269;28;46367;-64
2023/05/08 12:31:09;;;;;;;26.60;19.50;;;19.50;33.60;;;;;;5080029;28;46942;-66
2023/05/08 12:33:34;;;;;;;25.17;18.00;;;19.60;33.60;;;;;;5072993;28;46486;-65
2023/05/08 12:36:01;;;;;;;24.27;17.60;;;19.70;32.50;;;;;;5078582;28;46424;-66
2023/05/08 12:38:27;;;;;;;24.57;17.90;;;19.90;32.60;;;;;;5080133;28;46704;-64